createdAt,value
2019-02-10T00:04:06.827Z,98075.60
2019-02-10T00:06:24.496Z,98072.28
2019-02-10T00:08:30.479Z,98068.31
2019-02-10T00:10:41.402Z,98064.43
2019-02-10T00:13:32.153Z,98053.47
2019-02-10T00:15:43.003Z,98049.28
2019-02-10T00:17:53.800Z,98054.70
2019-02-10T00:20:04.714Z,98050.61
2019-02-10T00:22:16.678Z,98048.73
2019-02-10T00:24:28.249Z,98039.98
2019-02-10T00:26:39.064Z,98038.08
2019-02-10T00:28:49.858Z,98043.03
2019-02-10T00:31:00.650Z,98036.72
2019-02-10T00:33:11.468Z,98032.02
2019-02-10T00:35:22.282Z,98026.02
2019-02-10T00:37:33.108Z,98018.41
2019-02-10T00:39:43.911Z,98019.95
2019-02-10T00:41:54.740Z,98016.07
2019-02-10T00:44:05.525Z,98008.16
2019-02-10T00:46:16.338Z,98006.72
2019-02-10T00:48:27.189Z,98003.85
2019-02-10T00:50:37.974Z,98008.78
2019-02-10T00:52:48.789Z,98002.56
2019-02-10T00:54:59.635Z,97999.37
2019-02-10T00:57:10.485Z,97985.22
2019-02-10T00:59:21.286Z,97994.81
2019-02-10T01:01:32.078Z,97992.59
2019-02-10T01:03:42.900Z,97996.08
2019-02-10T01:05:53.807Z,97986.94
2019-02-10T01:08:04.726Z,97985.89
2019-02-10T01:10:57.185Z,97989.16
2019-02-10T01:13:08.013Z,97976.50
2019-02-10T01:15:18.920Z,97964.59
2019-02-10T01:17:29.725Z,97957.05
2019-02-10T01:19:40.648Z,97956.96
2019-02-10T01:21:51.448Z,97959.18
2019-02-10T01:24:02.284Z,97970.56
2019-02-10T01:26:13.061Z,97971.02
2019-02-10T01:28:23.882Z,97974.75
2019-02-10T01:31:16.333Z,97969.78
2019-02-10T01:33:27.168Z,97968.64
2019-02-10T01:35:37.969Z,97966.16
2019-02-10T01:37:48.879Z,97968.29
2019-02-10T01:39:59.694Z,97967.92
2019-02-10T01:42:10.498Z,97960.42
2019-02-10T01:44:21.336Z,97949.67
2019-02-10T01:46:32.143Z,97947.95
2019-02-10T01:48:42.950Z,97942.69
2019-02-10T01:50:53.758Z,97932.25
2019-02-10T01:53:04.546Z,97925.26
2019-02-10T01:55:15.381Z,97922.51
2019-02-10T01:57:26.181Z,97914.55
2019-02-10T01:59:37.013Z,97916.83
2019-02-10T02:01:47.823Z,97904.57
2019-02-10T02:03:58.610Z,97899.23
2019-02-10T02:06:09.431Z,97899.60
2019-02-10T02:08:20.332Z,97892.41
2019-02-10T02:10:31.157Z,97884.72
2019-02-10T02:12:41.970Z,97886.84
2019-02-10T02:14:52.779Z,97873.84
2019-02-10T02:17:03.595Z,97864.53
2019-02-10T02:19:14.387Z,97860.28
2019-02-10T02:21:25.217Z,97850.64
2019-02-10T02:23:36.014Z,97844.80
2019-02-10T02:25:46.844Z,97839.06
2019-02-10T02:27:57.641Z,97828.92
2019-02-10T02:30:50.115Z,97823.65
2019-02-10T02:33:00.913Z,97820.06
2019-02-10T02:35:11.716Z,97810.69
2019-02-10T02:37:22.539Z,97813.67
2019-02-10T02:39:33.331Z,97810.45
2019-02-10T02:41:44.163Z,97803.33
2019-02-10T02:43:54.968Z,97786.98
2019-02-10T02:46:05.807Z,97769.32
2019-02-10T02:48:16.603Z,97763.42
2019-02-10T02:50:27.402Z,97761.66
2019-02-10T02:52:38.225Z,97759.55
2019-02-10T02:54:49.037Z,97760.67
2019-02-10T02:56:59.866Z,97757.52
2019-02-10T02:59:10.725Z,97745.19
2019-02-10T03:01:21.542Z,97745.37
2019-02-10T03:03:32.343Z,97744.81
2019-02-10T03:05:43.143Z,97739.64
2019-02-10T03:07:53.973Z,97728.98
2019-02-10T03:10:46.446Z,97737.97
2019-02-10T03:12:57.272Z,97730.86
2019-02-10T03:15:08.178Z,97713.13
2019-02-10T03:17:18.995Z,97711.29
2019-02-10T03:19:29.790Z,97707.41
2019-02-10T03:21:40.587Z,97706.02
2019-02-10T03:23:51.428Z,97697.25
2019-02-10T03:26:02.234Z,97688.45
2019-02-10T03:28:13.061Z,97685.44
2019-02-10T03:30:23.950Z,97687.09
2019-02-10T03:32:34.804Z,97689.11
2019-02-10T03:34:45.752Z,97677.86
2019-02-10T03:36:56.563Z,97670.10
2019-02-10T03:39:07.387Z,97659.58
2019-02-10T03:41:18.172Z,97656.23
2019-02-10T03:44:10.642Z,97652.36
2019-02-10T03:46:21.562Z,97637.66
2019-02-10T03:48:32.377Z,97625.95
2019-02-10T03:50:43.170Z,97615.95
2019-02-10T03:52:53.999Z,97609.84
2019-02-10T03:55:46.461Z,97608.09
2019-02-10T03:57:57.370Z,97602.19
2019-02-10T04:00:49.850Z,97599.86
2019-02-10T04:03:00.680Z,97600.78
2019-02-10T04:05:11.478Z,97593.30
2019-02-10T04:07:22.278Z,97591.91
2019-02-10T04:09:33.107Z,97590.89
2019-02-10T04:11:43.936Z,97583.23
2019-02-10T04:13:54.714Z,97578.88
2019-02-10T04:16:05.506Z,97573.23
2019-02-10T04:18:16.308Z,97578.41
2019-02-10T04:20:27.132Z,97583.01
2019-02-10T04:22:37.935Z,97573.30
2019-02-10T04:24:48.771Z,97561.65
2019-02-10T04:26:59.561Z,97556.56
2019-02-10T04:29:10.409Z,97563.02
2019-02-10T04:31:21.220Z,97563.86
2019-02-10T04:33:32.017Z,97563.86
2019-02-10T04:35:42.909Z,97559.52
2019-02-10T04:37:53.723Z,97539.55
2019-02-10T04:40:26.331Z,97519.94
2019-02-10T04:42:37.135Z,97508.45
2019-02-10T04:44:48.940Z,97494.55
2019-02-10T04:47:00.676Z,97513.38
2019-02-10T04:52:03.718Z,97519.08
2019-02-10T04:54:14.525Z,97512.45
2019-02-10T04:56:25.338Z,97504.20
2019-02-10T04:58:36.125Z,97506.91
2019-02-10T05:03:04.337Z,97512.64
2019-02-10T05:05:15.138Z,97505.70
2019-02-10T05:07:25.946Z,97497.45
2019-02-10T05:09:36.867Z,97493.99
2019-02-10T05:11:47.676Z,97485.02
2019-02-10T05:13:58.461Z,97491.13
2019-02-10T05:16:09.271Z,97489.28
2019-02-10T05:18:20.103Z,97485.64
2019-02-10T05:20:30.881Z,97469.39
2019-02-10T05:22:41.697Z,97467.52
2019-02-10T05:24:52.490Z,97461.78
2019-02-10T05:27:03.420Z,97457.55
2019-02-10T05:29:14.206Z,97448.84
2019-02-10T05:31:25.002Z,97449.11
2019-02-10T05:33:35.813Z,97435.22
2019-02-10T05:35:46.611Z,97441.03
2019-02-10T05:38:03.899Z,97440.20
2019-02-10T05:40:10.288Z,97430.75
2019-02-10T05:42:21.296Z,97424.39
2019-02-10T05:44:32.086Z,97426.91
2019-02-10T05:46:42.887Z,97420.91
2019-02-10T05:48:53.701Z,97412.58
2019-02-10T05:51:04.508Z,97397.31
2019-02-10T05:53:15.340Z,97392.69
2019-02-10T05:55:26.160Z,97387.16
2019-02-10T05:57:36.986Z,97386.72
2019-02-10T05:59:47.796Z,97393.58
2019-02-10T06:02:40.261Z,97397.00
2019-02-10T06:04:51.087Z,97388.88
2019-02-10T06:07:43.528Z,97384.52
2019-02-10T06:09:54.345Z,97376.28
2019-02-10T06:12:05.137Z,97374.39
2019-02-10T06:14:15.967Z,97368.78
2019-02-10T06:16:26.767Z,97372.04
2019-02-10T06:18:37.589Z,97364.63
2019-02-10T06:20:48.375Z,97363.21
2019-02-10T06:22:59.194Z,97359.45
2019-02-10T06:25:10.021Z,97363.88
2019-02-10T06:27:20.796Z,97355.56
2019-02-10T06:29:31.622Z,97346.64
2019-02-10T06:31:42.409Z,97344.26
2019-02-10T06:33:53.265Z,97339.97
2019-02-10T06:36:04.043Z,97322.80
2019-02-10T06:38:22.323Z,97325.05
2019-02-10T06:40:27.931Z,97317.13
2019-02-10T06:42:38.806Z,97311.33
2019-02-10T06:44:49.625Z,97322.98
2019-02-10T06:47:00.442Z,97318.98
2019-02-10T06:49:11.258Z,97317.54
2019-02-10T06:51:22.070Z,97320.02
2019-02-10T06:53:34.708Z,97323.28
2019-02-10T06:55:45.622Z,97317.48
2019-02-10T06:57:56.410Z,97323.87
2019-02-10T07:00:48.875Z,97328.66
2019-02-10T07:06:14.876Z,97341.31
2019-02-10T07:08:30.611Z,97345.20
2019-02-10T07:10:38.399Z,97340.96
2019-02-10T07:12:49.310Z,97336.61
2019-02-10T07:15:41.757Z,97327.78
2019-02-10T07:18:34.252Z,97325.03
2019-02-10T07:20:45.057Z,97314.53
2019-02-10T07:25:54.845Z,97295.20
2019-02-10T07:28:47.320Z,97280.33
2019-02-10T07:31:39.763Z,97271.45
2019-02-10T07:34:30.366Z,97276.98
2019-02-10T07:37:20.884Z,97268.89
2019-02-10T07:40:11.426Z,97262.93
2019-02-10T07:43:03.885Z,97261.03
2019-02-10T07:45:54.423Z,97254.20
2019-02-10T07:48:46.917Z,97233.60
2019-02-10T07:51:39.366Z,97219.39
2019-02-10T07:54:31.847Z,97206.91
2019-02-10T07:57:24.335Z,97193.20
2019-02-10T08:00:14.924Z,97197.31
2019-02-10T08:03:07.382Z,97196.02
2019-02-10T08:05:59.751Z,97185.56
2019-02-10T08:08:52.301Z,97165.20
2019-02-10T08:11:42.833Z,97154.04
2019-02-10T08:14:35.298Z,97141.97
2019-02-10T08:17:25.825Z,97129.73
2019-02-10T08:20:16.410Z,97127.16
2019-02-10T08:23:08.868Z,97126.09
2019-02-10T08:25:59.424Z,97108.48
2019-02-10T08:28:51.880Z,97108.72
2019-02-10T08:31:42.469Z,97098.11
2019-02-10T08:34:33.021Z,97095.99
2019-02-10T08:37:25.495Z,97085.41
2019-02-10T08:40:17.955Z,97086.36
2019-02-10T08:43:10.406Z,97072.42
2019-02-10T08:46:02.868Z,97073.70
2019-02-10T08:48:53.415Z,97074.19
2019-02-10T08:51:45.893Z,97071.83
2019-02-10T08:53:56.681Z,97057.41
2019-02-10T08:56:07.510Z,97053.17
2019-02-10T08:58:18.353Z,97050.45
2019-02-10T09:00:29.248Z,97052.25
2019-02-10T09:02:40.072Z,97056.83
2019-02-10T09:04:50.918Z,97053.55
2019-02-10T09:07:01.786Z,97068.03
2019-02-10T09:09:12.571Z,97060.95
2019-02-10T09:11:23.437Z,97057.06
2019-02-10T09:13:34.224Z,97051.19
2019-02-10T09:15:45.055Z,97029.47
2019-02-10T09:17:55.864Z,97021.55
2019-02-10T09:20:48.317Z,97023.53
2019-02-10T09:22:59.256Z,97016.56
2019-02-10T09:25:51.764Z,97003.54
2019-02-10T09:28:02.787Z,97009.93
2019-02-10T09:30:13.717Z,96989.48
2019-02-10T09:32:24.552Z,96993.58
2019-02-10T09:34:35.362Z,96975.59
2019-02-10T09:36:46.161Z,96959.84
2019-02-10T09:38:57.440Z,96969.04
2019-02-10T09:41:08.247Z,96963.00
2019-02-10T09:43:19.111Z,96964.29
2019-02-10T09:45:29.902Z,96948.30
2019-02-10T09:47:40.725Z,96944.81
2019-02-10T09:49:51.532Z,96944.59
2019-02-10T09:52:02.380Z,96932.89
2019-02-10T09:54:13.272Z,96936.23
2019-02-10T09:56:24.196Z,96934.77
2019-02-10T09:58:35.065Z,96933.73
2019-02-10T10:00:45.880Z,96932.47
2019-02-10T10:02:56.746Z,96933.47
2019-02-10T10:05:49.221Z,96919.05
2019-02-10T10:08:00.144Z,96907.48
2019-02-10T10:10:52.656Z,96896.63
2019-02-10T10:13:03.525Z,96896.23
2019-02-10T10:15:55.969Z,96892.50
2019-02-10T10:18:06.957Z,96893.71
2019-02-10T10:20:17.872Z,96900.20
2019-02-10T10:22:28.706Z,96895.56
2019-02-10T10:24:39.529Z,96889.74
2019-02-10T10:26:50.359Z,96881.52
2019-02-10T10:29:01.319Z,96871.67
2019-02-10T10:31:12.130Z,96871.06
2019-02-10T10:33:22.967Z,96868.09
2019-02-10T10:35:33.765Z,96862.41
2019-02-10T10:37:44.613Z,96855.97
2019-02-10T10:39:55.567Z,96851.00
2019-02-10T10:42:06.388Z,96845.63
2019-02-10T10:44:24.790Z,96841.25
2019-02-10T10:46:35.585Z,96835.89
2019-02-10T10:48:46.673Z,96829.66
2019-02-10T10:50:57.511Z,96819.12
2019-02-10T10:53:08.339Z,96818.30
2019-02-10T10:55:19.240Z,96822.93
2019-02-10T10:57:30.189Z,96814.28
2019-02-10T10:59:41.013Z,96811.33
2019-02-10T11:04:34.511Z,96796.16
2019-02-10T11:06:45.331Z,96792.70
2019-02-10T11:09:16.032Z,96785.77
2019-02-10T11:11:26.846Z,96785.17
2019-02-10T11:13:37.755Z,96766.53
2019-02-10T11:15:48.674Z,96777.20
2019-02-10T11:17:59.498Z,96768.24
2019-02-10T11:20:52.011Z,96753.41
2019-02-10T11:23:02.828Z,96751.77
2019-02-10T11:25:13.779Z,96745.30
2019-02-10T11:27:24.705Z,96745.91
2019-02-10T11:29:35.516Z,96737.69
2019-02-10T11:31:46.388Z,96734.06
2019-02-10T11:33:57.174Z,96733.98
2019-02-10T11:36:08.002Z,96729.28
2019-02-10T11:38:18.822Z,96726.45
2019-02-10T11:40:30.669Z,96713.28
2019-02-10T11:42:43.849Z,96704.57
2019-02-10T11:44:54.753Z,96696.66
2019-02-10T11:47:05.589Z,96681.84
2019-02-10T11:49:16.387Z,96689.05
2019-02-10T11:51:27.234Z,96673.44
2019-02-10T11:53:38.159Z,96674.73
2019-02-10T11:55:49.036Z,96678.03
2019-02-10T11:57:59.887Z,96671.50
2019-02-10T12:00:30.587Z,96665.28
2019-02-10T12:02:41.450Z,96665.28
2019-02-10T12:04:52.322Z,96625.30
2019-02-10T12:07:03.195Z,96662.47
2019-02-10T12:09:14.066Z,96623.63
2019-02-10T12:11:24.860Z,96621.84
2019-02-10T12:13:35.718Z,96619.92
2019-02-10T12:21:14.667Z,96607.66
2019-02-10T12:28:23.644Z,96612.51
2019-02-10T12:30:34.556Z,96598.34
2019-02-10T12:35:44.144Z,96603.55
2019-02-10T12:37:55.001Z,96595.72
2019-02-10T12:40:48.394Z,96591.75
2019-02-10T12:42:59.336Z,96594.67
2019-02-10T12:45:51.805Z,96600.38
2019-02-10T12:48:02.638Z,96599.38
2019-02-10T12:50:35.228Z,96595.45
2019-02-10T12:52:46.039Z,96596.10
2019-02-10T12:54:56.857Z,96600.53
2019-02-10T12:57:07.681Z,96614.20
2019-02-10T12:59:18.623Z,96594.12
2019-02-10T13:01:29.432Z,96618.10
2019-02-10T13:03:40.245Z,96631.75
2019-02-10T13:05:51.098Z,96624.17
2019-02-10T13:08:01.887Z,96649.52
2019-02-10T13:10:54.375Z,96645.64
2019-02-10T13:13:05.295Z,96647.73
2019-02-10T13:15:16.239Z,96636.94
2019-02-10T13:17:27.034Z,96651.58
2019-02-10T13:19:37.832Z,96638.21
2019-02-10T13:21:48.657Z,96659.55
2019-02-10T13:23:59.481Z,96674.91
2019-02-10T13:26:10.320Z,96675.16
2019-02-10T13:28:21.237Z,96693.71
2019-02-10T13:30:33.758Z,96694.48
2019-02-10T13:32:44.878Z,96662.02
2019-02-10T13:34:55.674Z,96679.77
2019-02-10T13:37:06.526Z,96661.23
2019-02-10T13:39:17.357Z,96661.47
2019-02-10T13:41:47.959Z,96646.61
2019-02-10T13:43:58.799Z,96637.20
2019-02-10T13:46:09.603Z,96641.17
2019-02-10T13:48:20.442Z,96641.77
2019-02-10T13:52:48.591Z,96624.26
2019-02-10T13:54:59.461Z,96621.52
2019-02-10T13:57:10.300Z,96627.10
2019-02-10T13:59:21.134Z,96628.33
2019-02-10T14:01:32.085Z,96629.36
2019-02-10T14:03:43.004Z,96623.28
2019-02-10T14:05:53.821Z,96621.43
2019-02-10T14:08:04.702Z,96608.08
2019-02-10T14:10:15.615Z,96610.07
2019-02-10T14:12:26.444Z,96598.38
2019-02-10T14:14:37.281Z,96604.92
2019-02-10T14:16:48.201Z,96596.24
2019-02-10T14:18:59.058Z,96612.23
2019-02-10T14:21:09.868Z,96586.05
2019-02-10T14:23:20.837Z,96594.80
2019-02-10T14:25:31.648Z,96597.80
2019-02-10T14:30:32.821Z,96590.20
2019-02-10T14:32:43.689Z,96592.80
2019-02-10T14:34:54.501Z,96588.42
2019-02-10T14:37:05.450Z,96584.13
2019-02-10T14:39:16.290Z,96582.89
2019-02-10T14:41:27.114Z,96580.97
2019-02-10T14:43:37.932Z,96584.09
2019-02-10T14:45:48.850Z,96581.30
2019-02-10T14:47:59.782Z,96580.20
2019-02-10T14:50:52.235Z,96568.33
2019-02-10T14:53:03.062Z,96556.91
2019-02-10T14:55:13.868Z,96555.16
2019-02-10T14:57:24.818Z,96569.89
2019-02-10T14:59:35.767Z,96564.47
2019-02-10T15:01:46.705Z,96556.45
2019-02-10T15:03:57.559Z,96547.38
2019-02-10T15:06:08.369Z,96545.74
2019-02-10T15:08:19.206Z,96546.70
2019-02-10T15:10:30.024Z,96549.95
2019-02-10T15:12:40.848Z,96559.41
2019-02-10T15:14:51.867Z,96541.95
2019-02-10T15:17:02.806Z,96540.83
2019-02-10T15:19:13.615Z,96548.73
2019-02-10T15:21:24.468Z,96556.98
2019-02-10T15:23:35.279Z,96547.54
2019-02-10T15:25:46.114Z,96554.47
2019-02-10T15:27:56.944Z,96563.84
2019-02-10T15:30:27.638Z,96555.02
2019-02-10T15:32:38.553Z,96569.28
2019-02-10T15:34:49.413Z,96567.73
2019-02-10T15:37:00.217Z,96574.36
2019-02-10T15:39:11.015Z,96580.65
2019-02-10T15:41:21.842Z,96578.62
2019-02-10T15:43:32.682Z,96599.73
2019-02-10T15:45:43.519Z,96593.14
2019-02-10T15:47:54.327Z,96583.09
2019-02-10T15:50:46.823Z,96596.86
2019-02-10T15:52:57.622Z,96608.34
2019-02-10T15:55:50.123Z,96609.55
2019-02-10T15:58:01.006Z,96625.59
2019-02-10T16:00:53.496Z,96627.87
2019-02-10T16:03:04.327Z,96644.96
2019-02-10T16:05:15.181Z,96653.94
2019-02-10T16:07:26.015Z,96661.61
2019-02-10T16:09:37.307Z,96697.41
2019-02-10T16:11:49.616Z,96703.19
2019-02-10T16:14:00.449Z,96700.29
2019-02-10T16:16:11.347Z,96709.87
2019-02-10T16:18:22.135Z,96727.31
2019-02-10T16:20:32.937Z,96730.26
2019-02-10T16:22:43.842Z,96738.98
2019-02-10T16:24:54.764Z,96747.09
2019-02-10T16:27:05.712Z,96758.59
2019-02-10T16:29:16.514Z,96743.28
2019-02-10T16:31:27.351Z,96749.48
2019-02-10T16:33:38.317Z,96756.73
2019-02-10T16:35:49.176Z,96770.11
2019-02-10T16:38:00.103Z,96770.05
2019-02-10T16:40:30.794Z,96781.67
2019-02-10T16:42:41.656Z,96772.16
2019-02-10T16:44:52.558Z,96777.54
2019-02-10T16:47:03.403Z,96795.25
2019-02-10T16:49:14.206Z,96800.20
2019-02-10T16:51:25.068Z,96802.69
2019-02-10T16:53:35.930Z,96801.14
2019-02-10T16:55:46.734Z,96808.86
2019-02-10T17:00:37.233Z,96813.42
2019-02-10T17:02:48.116Z,96825.81
2019-02-10T17:04:58.933Z,96821.47
2019-02-10T17:07:09.802Z,96839.04
2019-02-10T17:09:20.722Z,96828.77
2019-02-10T17:11:31.560Z,96825.90
2019-02-10T17:13:42.468Z,96828.15
2019-02-10T17:15:53.368Z,96826.76
2019-02-10T17:18:04.243Z,96833.01
2019-02-10T17:20:15.090Z,96829.75
2019-02-10T17:22:25.916Z,96847.06
2019-02-10T17:24:36.883Z,96857.64
2019-02-10T17:26:47.745Z,96843.11
2019-02-10T17:28:58.572Z,96877.03
2019-02-10T17:31:09.518Z,96883.98
2019-02-10T17:33:20.391Z,96876.14
2019-02-10T17:35:31.194Z,96887.08
2019-02-10T17:37:42.010Z,96914.52
2019-02-10T17:39:52.884Z,96953.80
2019-02-10T17:42:03.699Z,96937.89
2019-02-10T17:44:14.559Z,96956.28
2019-02-10T17:46:25.479Z,96957.87
2019-02-10T17:48:36.607Z,96954.67
2019-02-10T17:50:47.521Z,96963.89
2019-02-10T17:52:58.489Z,96955.62
2019-02-10T17:57:26.368Z,96904.01
2019-02-10T17:59:37.224Z,96908.36
2019-02-10T18:01:48.060Z,96901.58
2019-02-10T18:03:58.918Z,96930.21
2019-02-10T18:06:09.924Z,96942.70
2019-02-10T18:08:20.755Z,96938.19
2019-02-10T18:11:13.279Z,96946.11
2019-02-10T18:13:24.123Z,96934.80
2019-02-10T18:15:54.868Z,96956.79
2019-02-10T18:18:25.672Z,96959.72
2019-02-10T18:23:18.840Z,96963.77
2019-02-10T18:25:49.658Z,96974.35
2019-02-10T18:33:11.485Z,97015.70
2019-02-10T18:42:42.207Z,97026.44
2019-02-10T18:45:12.931Z,97060.40
2019-02-10T18:50:06.150Z,97070.63
2019-02-10T18:52:36.906Z,97063.27
2019-02-10T18:55:07.597Z,97074.33
2019-02-10T18:57:38.446Z,97079.02
2019-02-10T19:00:09.141Z,97085.45
2019-02-10T19:05:12.222Z,97099.98
2019-02-10T19:07:42.968Z,97115.44
2019-02-10T19:12:46.272Z,97117.28
2019-02-10T19:15:16.978Z,97128.98
2019-02-10T19:20:06.289Z,97135.78
2019-02-10T19:22:37.098Z,97132.91
2019-02-10T19:25:07.816Z,97134.95
2019-02-10T19:27:38.611Z,97144.98
2019-02-10T19:32:27.963Z,97146.19
2019-02-10T19:39:40.375Z,97160.27
2019-02-10T19:42:11.062Z,97166.41
2019-02-10T19:47:00.306Z,97173.23
2019-02-10T19:49:31.101Z,97172.50
2019-02-10T19:52:01.800Z,97168.55
2019-02-10T19:54:32.525Z,97172.77
2019-02-10T19:57:03.256Z,97173.89
2019-02-10T19:59:34.116Z,97164.22
2019-02-10T20:02:04.819Z,97178.85
2019-02-10T20:09:27.015Z,97173.08
2019-02-10T20:12:03.998Z,97165.98
2019-02-10T20:14:30.355Z,97162.94
2019-02-10T20:24:00.788Z,97151.91
2019-02-10T20:26:31.533Z,97146.67
2019-02-10T20:31:34.857Z,97138.48
2019-02-10T20:33:47.660Z,97143.53
2019-02-10T20:38:19.117Z,97159.74
2019-02-10T20:43:22.249Z,97161.86
2019-02-10T20:45:52.928Z,97167.12
2019-02-10T20:57:42.484Z,97198.47
2019-02-10T21:00:13.157Z,97192.41
2019-02-10T21:02:43.964Z,97222.04
2019-02-10T21:05:14.674Z,97226.71
2019-02-10T21:10:04.527Z,97236.60
2019-02-10T21:12:35.246Z,97240.73
2019-02-10T21:15:05.944Z,97248.56
2019-02-10T21:17:36.688Z,97256.75
2019-02-10T21:27:20.794Z,97281.91
2019-02-10T21:29:51.491Z,97272.53
2019-02-10T21:32:22.313Z,97280.05
2019-02-10T21:34:53.001Z,97298.23
2019-02-10T21:37:23.693Z,97307.81
2019-02-10T21:44:36.721Z,97312.13
2019-02-10T21:47:07.457Z,97317.70
2019-02-10T21:49:18.403Z,97308.48
2019-02-10T21:51:29.179Z,97308.06
2019-02-10T21:53:39.981Z,97315.18
2019-02-10T21:55:50.801Z,97318.83
2019-02-10T21:58:01.651Z,97315.27
2019-02-10T22:02:31.122Z,97323.30
2019-02-10T22:04:41.939Z,97327.31
2019-02-10T22:06:52.758Z,97329.00
2019-02-10T22:09:45.316Z,97341.47
2019-02-10T22:11:56.161Z,97339.63
2019-02-10T22:14:07.085Z,97345.45
2019-02-10T22:16:17.974Z,97357.17
2019-02-10T22:18:28.819Z,97347.09
2019-02-10T22:20:39.750Z,97363.45
2019-02-10T22:22:50.551Z,97375.71
2019-02-10T22:25:01.459Z,97373.20
2019-02-10T22:27:12.295Z,97373.19
2019-02-10T22:29:42.991Z,97375.15
2019-02-10T22:31:53.913Z,97375.15
2019-02-10T22:34:04.719Z,97380.51
2019-02-10T22:38:32.842Z,97393.28
2019-02-10T22:40:43.649Z,97396.42
2019-02-10T22:42:54.465Z,97387.78
2019-02-10T22:45:25.162Z,97401.76
2019-02-10T22:47:35.990Z,97395.59
2019-02-10T22:49:46.876Z,97385.84
2019-02-10T22:51:57.702Z,97390.62
2019-02-10T22:54:08.533Z,97394.70
2019-02-10T22:56:19.395Z,97391.87
2019-02-10T22:58:30.267Z,97393.41
2019-02-10T23:01:03.137Z,97389.30
2019-02-10T23:03:14.157Z,97391.45
2019-02-10T23:05:24.997Z,97388.88
2019-02-10T23:07:35.812Z,97385.73
2019-02-10T23:09:46.621Z,97385.17
2019-02-10T23:11:57.444Z,97383.16
2019-02-10T23:14:08.279Z,97388.09
2019-02-10T23:16:19.103Z,97391.30
2019-02-10T23:18:29.949Z,97391.30
2019-02-10T23:20:40.771Z,97388.47
2019-02-10T23:22:51.602Z,97395.27
2019-02-10T23:25:22.293Z,97408.36
2019-02-10T23:27:33.194Z,97408.36
2019-02-10T23:29:44.014Z,97420.34
2019-02-10T23:31:54.821Z,97429.73
2019-02-10T23:34:05.668Z,97441.07
2019-02-10T23:36:16.457Z,97452.41
2019-02-10T23:38:27.277Z,97458.42
2019-02-10T23:40:38.094Z,97469.56
2019-02-10T23:42:48.897Z,97484.41
2019-02-10T23:44:59.815Z,97475.23
2019-02-10T23:47:10.640Z,97476.83
2019-02-10T23:49:21.468Z,97477.66
2019-02-10T23:51:32.274Z,97481.93
2019-02-10T23:53:43.166Z,97480.18
2019-02-10T23:55:53.976Z,97468.28
2019-02-10T23:58:04.797Z,97474.20
